createdAt,value
2023-04-02T00:00:46.159Z,94350.00
2023-04-02T00:01:46.256Z,94352.00
2023-04-02T00:02:46.296Z,94350.00
2023-04-02T00:03:46.544Z,94352.00
2023-04-02T00:04:46.365Z,94350.00
2023-04-02T00:05:46.409Z,94352.00
2023-04-02T00:06:46.469Z,94352.00
2023-04-02T00:07:46.493Z,94352.00
2023-04-02T00:08:46.505Z,94354.00
2023-04-02T00:09:46.523Z,94352.00
2023-04-02T00:10:46.561Z,94352.00
2023-04-02T00:11:46.616Z,94356.00
2023-04-02T00:12:46.604Z,94356.00
2023-04-02T00:13:46.637Z,94358.00
2023-04-02T00:14:46.978Z,94356.00
2023-04-02T00:15:46.675Z,94358.00
2023-04-02T00:16:46.834Z,94358.00
2023-04-02T00:17:46.739Z,94360.00
2023-04-02T00:18:46.736Z,94356.00
2023-04-02T00:19:46.752Z,94362.00
2023-04-02T00:20:46.771Z,94362.00
2023-04-02T00:21:46.823Z,94360.00
2023-04-02T00:22:46.834Z,94360.00
2023-04-02T00:23:46.869Z,94358.00
2023-04-02T00:24:46.903Z,94362.00
2023-04-02T00:25:46.931Z,94356.00
2023-04-02T00:26:46.941Z,94360.00
2023-04-02T00:27:47.031Z,94360.00
2023-04-02T00:28:47.007Z,94362.00
2023-04-02T00:29:47.019Z,94364.00
2023-04-02T00:30:47.050Z,94364.00
2023-04-02T00:31:47.155Z,94362.00
2023-04-02T00:32:47.154Z,94362.00
2023-04-02T00:33:47.132Z,94364.00
2023-04-02T00:34:47.164Z,94366.00
2023-04-02T00:35:47.198Z,94366.00
2023-04-02T00:36:47.222Z,94366.00
2023-04-02T00:37:47.240Z,94368.00
2023-04-02T00:38:48.708Z,94368.00
2023-04-02T00:39:47.430Z,94376.00
2023-04-02T00:40:47.450Z,94376.00
2023-04-02T00:41:47.508Z,94368.00
2023-04-02T00:42:47.516Z,94368.00
2023-04-02T00:43:47.571Z,94368.00
2023-04-02T00:44:47.570Z,94368.00
2023-04-02T00:45:47.650Z,94368.00
2023-04-02T00:46:47.614Z,94366.00
2023-04-02T00:47:47.695Z,94366.00
2023-04-02T00:48:47.664Z,94364.00
2023-04-02T00:49:47.697Z,94362.00
2023-04-02T00:50:47.717Z,94364.00
2023-04-02T00:51:47.747Z,94364.00
2023-04-02T00:52:47.813Z,94364.00
2023-04-02T00:53:47.846Z,94366.00
2023-04-02T00:54:47.881Z,94366.00
2023-04-02T00:55:47.909Z,94368.00
2023-04-02T00:56:47.947Z,94368.00
2023-04-02T00:57:47.956Z,94366.00
2023-04-02T00:58:47.978Z,94366.00
2023-04-02T00:59:48.026Z,94366.00
2023-04-02T01:00:48.046Z,94366.00
2023-04-02T01:01:48.203Z,94366.00
2023-04-02T01:02:48.124Z,94364.00
2023-04-02T01:03:48.128Z,94362.00
2023-04-02T01:04:48.133Z,94360.00
2023-04-02T01:05:48.183Z,94362.00
2023-04-02T01:06:48.223Z,94362.00
2023-04-02T01:07:48.238Z,94362.00
2023-04-02T01:08:48.285Z,94362.00
2023-04-02T01:09:48.305Z,94364.00
2023-04-02T01:10:48.317Z,94360.00
2023-04-02T01:11:48.358Z,94364.00
2023-04-02T01:12:48.395Z,94360.00
2023-04-02T01:13:48.414Z,94364.00
2023-04-02T01:14:48.434Z,94364.00
2023-04-02T01:15:48.613Z,94362.00
2023-04-02T01:16:48.484Z,94364.00
2023-04-02T01:17:48.589Z,94368.00
2023-04-02T01:18:48.534Z,94364.00
2023-04-02T01:19:48.561Z,94366.00
2023-04-02T01:20:48.590Z,94366.00
2023-04-02T01:21:48.617Z,94366.00
2023-04-02T01:22:48.657Z,94366.00
2023-04-02T01:23:48.670Z,94366.00
2023-04-02T01:24:48.691Z,94376.00
2023-04-02T01:25:48.719Z,94366.00
2023-04-02T01:26:48.737Z,94368.00
2023-04-02T01:27:48.761Z,94376.00
2023-04-02T01:28:48.787Z,94376.00
2023-04-02T01:29:48.807Z,94368.00
2023-04-02T01:30:48.831Z,94366.00
2023-04-02T01:31:49.029Z,94368.00
2023-04-02T01:32:48.909Z,94376.00
2023-04-02T01:33:48.884Z,94366.00
2023-04-02T01:34:48.926Z,94368.00
2023-04-02T01:35:48.983Z,94376.00
2023-04-02T01:36:48.986Z,94378.00
2023-04-02T01:37:48.991Z,94382.00
2023-04-02T01:38:49.007Z,94378.00
2023-04-02T01:39:49.035Z,94378.00
2023-04-02T01:40:49.075Z,94380.00
2023-04-02T01:41:49.098Z,94382.00
2023-04-02T01:42:49.109Z,94383.00
2023-04-02T01:43:49.138Z,94382.00
2023-04-02T01:44:49.176Z,94383.00
2023-04-02T01:45:49.201Z,94382.00
2023-04-02T01:46:49.339Z,94385.00
2023-04-02T01:47:49.300Z,94385.00
2023-04-02T01:48:49.254Z,94383.00
2023-04-02T01:49:49.288Z,94387.00
2023-04-02T01:50:49.320Z,94387.00
2023-04-02T01:51:49.335Z,94387.00
2023-04-02T01:52:49.358Z,94393.00
2023-04-02T01:53:49.382Z,94393.00
2023-04-02T01:54:49.436Z,94391.00
2023-04-02T01:55:49.478Z,94389.00
2023-04-02T01:56:49.547Z,94389.00
2023-04-02T01:57:49.544Z,94391.00
2023-04-02T01:58:49.573Z,94393.00
2023-04-02T01:59:49.593Z,94393.00
2023-04-02T02:00:49.659Z,94395.00
2023-04-02T02:01:49.671Z,94393.00
2023-04-02T02:02:49.678Z,94397.00
2023-04-02T02:03:49.746Z,94399.00
2023-04-02T02:04:49.747Z,94399.00
2023-04-02T02:05:49.768Z,94401.00
2023-04-02T02:06:49.798Z,94403.00
2023-04-02T02:07:49.814Z,94401.00
2023-04-02T02:08:49.861Z,94403.00
2023-04-02T02:09:49.860Z,94405.00
2023-04-02T02:10:49.887Z,94409.00
2023-04-02T02:11:49.908Z,94409.00
2023-04-02T02:12:49.929Z,94413.00
2023-04-02T02:13:49.948Z,94409.00
2023-04-02T02:14:49.977Z,94409.00
2023-04-02T02:15:49.987Z,94409.00
2023-04-02T02:16:50.094Z,94415.00
2023-04-02T02:17:50.107Z,94417.00
2023-04-02T02:18:50.058Z,94411.00
2023-04-02T02:19:50.096Z,94413.00
2023-04-02T02:20:50.103Z,94411.00
2023-04-02T02:21:50.122Z,94413.00
2023-04-02T02:22:50.152Z,94415.00
2023-04-02T02:23:50.160Z,94407.00
2023-04-02T02:24:50.181Z,94407.00
2023-04-02T02:25:50.209Z,94409.00
2023-04-02T02:26:50.232Z,94411.00
2023-04-02T02:27:50.256Z,94415.00
2023-04-02T02:28:50.328Z,94415.00
2023-04-02T02:29:50.316Z,94415.00
2023-04-02T02:30:50.335Z,94417.00
2023-04-02T02:31:50.400Z,94419.00
2023-04-02T02:32:50.400Z,94421.00
2023-04-02T02:33:50.412Z,94417.00
2023-04-02T02:34:50.444Z,94417.00
2023-04-02T02:35:50.541Z,94417.00
2023-04-02T02:36:50.505Z,94417.00
2023-04-02T02:37:50.544Z,94423.00
2023-04-02T02:38:50.569Z,94425.00
2023-04-02T02:39:50.593Z,94425.00
2023-04-02T02:40:50.642Z,94429.00
2023-04-02T02:41:50.668Z,94427.00
2023-04-02T02:42:50.704Z,94429.00
2023-04-02T02:43:50.744Z,94430.00
2023-04-02T02:44:50.776Z,94430.00
2023-04-02T02:45:50.838Z,94430.00
2023-04-02T02:46:50.821Z,94430.00
2023-04-02T02:47:50.890Z,94430.00
2023-04-02T02:48:50.895Z,94434.00
2023-04-02T02:49:50.926Z,94432.00
2023-04-02T02:50:50.970Z,94436.00
2023-04-02T02:51:51.025Z,94436.00
2023-04-02T02:52:51.029Z,94440.00
2023-04-02T02:53:51.088Z,94440.00
2023-04-02T02:54:51.090Z,94438.00
2023-04-02T02:55:51.121Z,94440.00
2023-04-02T02:56:51.190Z,94442.00
2023-04-02T02:57:51.178Z,94446.00
2023-04-02T02:58:51.208Z,94444.00
2023-04-02T02:59:51.231Z,94446.00
2023-04-02T03:00:51.265Z,94448.00
2023-04-02T03:01:51.326Z,94446.00
2023-04-02T03:02:51.410Z,94446.00
2023-04-02T03:03:51.523Z,94448.00
2023-04-02T03:04:51.389Z,94450.00
2023-04-02T03:05:51.424Z,94450.00
2023-04-02T03:06:51.457Z,94448.00
2023-04-02T03:07:51.505Z,94450.00
2023-04-02T03:08:51.515Z,94450.00
2023-04-02T03:09:51.555Z,94450.00
2023-04-02T03:10:51.584Z,94450.00
2023-04-02T03:11:51.611Z,94450.00
2023-04-02T03:12:51.637Z,94448.00
2023-04-02T03:13:51.669Z,94450.00
2023-04-02T03:14:51.706Z,94450.00
2023-04-02T03:15:51.803Z,94448.00
2023-04-02T03:16:51.777Z,94448.00
2023-04-02T03:17:51.845Z,94446.00
2023-04-02T03:18:51.849Z,94448.00
2023-04-02T03:19:51.874Z,94450.00
2023-04-02T03:20:51.926Z,94452.00
2023-04-02T03:21:51.942Z,94456.00
2023-04-02T03:22:51.966Z,94458.00
2023-04-02T03:23:52.075Z,94460.00
2023-04-02T03:24:52.030Z,94462.00
2023-04-02T03:25:52.028Z,94464.00
2023-04-02T03:26:52.079Z,94466.00
2023-04-02T03:27:52.142Z,94464.00
2023-04-02T03:28:52.225Z,94466.00
2023-04-02T03:29:52.264Z,94464.00
2023-04-02T03:30:52.393Z,94460.00
2023-04-02T03:31:52.404Z,94462.00
2023-04-02T03:32:52.524Z,94466.00
2023-04-02T03:33:52.562Z,94468.00
2023-04-02T03:34:52.645Z,94470.00
2023-04-02T03:35:52.739Z,94472.00
2023-04-02T03:36:52.806Z,94470.00
2023-04-02T03:37:52.875Z,94474.00
2023-04-02T03:38:52.975Z,94474.00
2023-04-02T03:39:53.033Z,94478.00
2023-04-02T03:40:53.080Z,94476.00
2023-04-02T03:41:53.147Z,94476.00
2023-04-02T03:42:53.209Z,94480.00
2023-04-02T03:43:53.272Z,94480.00
2023-04-02T03:44:53.328Z,94480.00
2023-04-02T03:45:53.386Z,94483.00
2023-04-02T03:46:53.517Z,94478.00
2023-04-02T03:47:53.582Z,94480.00
2023-04-02T03:48:53.587Z,94478.00
2023-04-02T03:49:53.658Z,94483.00
2023-04-02T03:50:53.727Z,94480.00
2023-04-02T03:51:53.783Z,94481.00
2023-04-02T03:52:53.838Z,94485.00
2023-04-02T03:53:53.918Z,94485.00
2023-04-02T03:54:54.589Z,94489.00
2023-04-02T03:55:54.069Z,94485.00
2023-04-02T03:56:54.155Z,94485.00
2023-04-02T03:57:54.184Z,94487.00
2023-04-02T03:58:54.245Z,94487.00
2023-04-02T03:59:54.320Z,94491.00
2023-04-02T04:00:54.380Z,94493.00
2023-04-02T04:01:54.458Z,94497.00
2023-04-02T04:02:54.522Z,94497.00
2023-04-02T04:03:54.657Z,94499.00
2023-04-02T04:04:54.641Z,94501.00
2023-04-02T04:05:54.704Z,94501.00
2023-04-02T04:06:54.769Z,94501.00
2023-04-02T04:07:55.048Z,94499.00
2023-04-02T04:08:54.916Z,94501.00
2023-04-02T04:09:54.954Z,94499.00
2023-04-02T04:10:55.028Z,94499.00
2023-04-02T04:11:55.102Z,94499.00
2023-04-02T04:12:55.158Z,94497.00
2023-04-02T04:13:55.216Z,94497.00
2023-04-02T04:14:55.294Z,94497.00
2023-04-02T04:15:55.349Z,94501.00
2023-04-02T04:16:55.514Z,94501.00
2023-04-02T04:17:55.509Z,94505.00
2023-04-02T04:18:55.529Z,94509.00
2023-04-02T04:19:55.596Z,94509.00
2023-04-02T04:20:55.657Z,94509.00
2023-04-02T04:21:55.711Z,94511.00
2023-04-02T04:22:56.035Z,94511.00
2023-04-02T04:23:55.824Z,94511.00
2023-04-02T04:24:55.892Z,94513.00
2023-04-02T04:25:55.961Z,94509.00
2023-04-02T04:26:56.023Z,94511.00
2023-04-02T04:27:56.164Z,94511.00
2023-04-02T04:28:56.152Z,94513.00
2023-04-02T04:29:56.213Z,94513.00
2023-04-02T04:30:56.281Z,94517.00
2023-04-02T04:31:56.360Z,94517.00
2023-04-02T04:32:56.454Z,94521.00
2023-04-02T04:33:56.512Z,94521.00
2023-04-02T04:34:56.570Z,94527.00
2023-04-02T04:35:56.709Z,94523.00
2023-04-02T04:36:56.722Z,94525.00
2023-04-02T04:37:56.797Z,94525.00
2023-04-02T04:38:56.898Z,94527.00
2023-04-02T04:39:56.981Z,94527.00
2023-04-02T04:40:57.048Z,94527.00
2023-04-02T04:41:57.120Z,94531.00
2023-04-02T04:42:57.199Z,94531.00
2023-04-02T04:43:57.298Z,94532.00
2023-04-02T04:44:57.367Z,94532.00
2023-04-02T04:45:57.448Z,94536.00
2023-04-02T04:46:57.516Z,94538.00
2023-04-02T04:47:57.611Z,94538.00
2023-04-02T04:48:57.677Z,94540.00
2023-04-02T04:49:57.748Z,94540.00
2023-04-02T04:50:57.810Z,94540.00
2023-04-02T04:51:57.889Z,94542.00
2023-04-02T04:52:58.023Z,94546.00
2023-04-02T04:53:58.056Z,94546.00
2023-04-02T04:54:58.114Z,94548.00
2023-04-02T04:56:03.454Z,94548.00
2023-04-02T04:56:58.224Z,94550.00
2023-04-02T04:57:58.208Z,94550.00
2023-04-02T04:58:58.223Z,94552.00
2023-04-02T04:59:58.258Z,94550.00
2023-04-02T05:00:58.248Z,94552.00
2023-04-02T05:01:58.324Z,94552.00
2023-04-02T05:02:58.318Z,94554.00
2023-04-02T05:03:58.304Z,94552.00
2023-04-02T05:04:58.463Z,94554.00
2023-04-02T05:05:58.327Z,94554.00
2023-04-02T05:06:58.333Z,94556.00
2023-04-02T05:07:59.670Z,94556.00
2023-04-02T05:08:58.545Z,94554.00
2023-04-02T05:09:58.615Z,94554.00
2023-04-02T05:10:58.694Z,94554.00
2023-04-02T05:11:58.775Z,94556.00
2023-04-02T05:12:58.915Z,94556.00
2023-04-02T05:13:58.947Z,94558.00
2023-04-02T05:14:59.036Z,94558.00
2023-04-02T05:16:01.228Z,94558.00
2023-04-02T05:16:59.140Z,94560.00
2023-04-02T05:17:59.152Z,94562.00
2023-04-02T05:18:59.165Z,94564.00
2023-04-02T05:19:59.183Z,94562.00
2023-04-02T05:20:59.210Z,94566.00
2023-04-02T05:21:59.212Z,94566.00
2023-04-02T05:22:59.245Z,94568.00
2023-04-02T05:23:59.245Z,94570.00
2023-04-02T05:24:59.262Z,94570.00
2023-04-02T05:25:59.269Z,94572.00
2023-04-02T05:26:59.283Z,94570.00
2023-04-02T05:27:59.318Z,94572.00
2023-04-02T05:28:59.322Z,94574.00
2023-04-02T05:29:59.345Z,94572.00
2023-04-02T05:30:59.413Z,94576.00
2023-04-02T05:31:59.383Z,94574.00
2023-04-02T05:32:59.385Z,94579.00
2023-04-02T05:33:59.394Z,94579.00
2023-04-02T05:34:59.417Z,94581.00
2023-04-02T05:35:59.477Z,94583.00
2023-04-02T05:36:59.462Z,94585.00
2023-04-02T05:37:59.485Z,94583.00
2023-04-02T05:38:59.483Z,94585.00
2023-04-02T05:39:59.488Z,94589.00
2023-04-02T05:40:59.524Z,94591.00
2023-04-02T05:41:59.605Z,94591.00
2023-04-02T05:42:59.670Z,94593.00
2023-04-02T05:43:59.763Z,94593.00
2023-04-02T05:44:59.846Z,94593.00
2023-04-02T05:45:59.930Z,94595.00
2023-04-02T05:47:00.030Z,94597.00
2023-04-02T05:48:00.186Z,94599.00
2023-04-02T05:49:00.181Z,94599.00
2023-04-02T05:50:00.234Z,94601.00
2023-04-02T05:51:00.298Z,94599.00
2023-04-02T05:52:00.382Z,94599.00
2023-04-02T05:53:00.439Z,94601.00
2023-04-02T05:54:00.477Z,94601.00
2023-04-02T05:55:00.499Z,94601.00
2023-04-02T05:56:01.346Z,94605.00
2023-04-02T05:57:00.647Z,94605.00
2023-04-02T05:58:21.298Z,94607.00
2023-04-02T05:59:00.770Z,94611.00
2023-04-02T06:00:00.680Z,94611.00
2023-04-02T06:01:00.699Z,94611.00
2023-04-02T06:02:00.771Z,94611.00
2023-04-02T06:03:00.811Z,94617.00
2023-04-02T06:04:00.850Z,94615.00
2023-04-02T06:05:00.765Z,94615.00
2023-04-02T06:06:00.765Z,94619.00
2023-04-02T06:07:00.788Z,94619.00
2023-04-02T06:08:00.800Z,94621.00
2023-04-02T06:09:00.826Z,94623.00
2023-04-02T06:10:00.825Z,94623.00
2023-04-02T06:11:00.846Z,94623.00
2023-04-02T06:12:00.861Z,94621.00
2023-04-02T06:13:00.876Z,94625.00
2023-04-02T06:14:00.894Z,94632.00
2023-04-02T06:15:00.923Z,94632.00
2023-04-02T06:16:00.923Z,94636.00
2023-04-02T06:17:00.969Z,94638.00
2023-04-02T06:18:01.008Z,94638.00
2023-04-02T06:19:00.988Z,94640.00
2023-04-02T06:20:01.036Z,94640.00
2023-04-02T06:21:01.010Z,94638.00
2023-04-02T06:22:01.052Z,94640.00
2023-04-02T06:23:01.052Z,94640.00
2023-04-02T06:24:01.066Z,94640.00
2023-04-02T06:25:01.072Z,94640.00
2023-04-02T06:26:01.103Z,94638.00
2023-04-02T06:27:01.110Z,94640.00
2023-04-02T06:28:01.127Z,94642.00
2023-04-02T06:29:01.146Z,94638.00
2023-04-02T06:30:01.147Z,94638.00
2023-04-02T06:31:01.239Z,94640.00
2023-04-02T06:32:01.241Z,94638.00
2023-04-02T06:33:01.363Z,94640.00
2023-04-02T06:34:01.379Z,94640.00
2023-04-02T06:35:01.444Z,94638.00
2023-04-02T06:36:01.588Z,94640.00
2023-04-02T06:37:01.627Z,94638.00
2023-04-02T06:38:01.616Z,94638.00
2023-04-02T06:39:01.692Z,94640.00
2023-04-02T06:40:01.727Z,94638.00
2023-04-02T06:41:01.788Z,94638.00
2023-04-02T06:42:01.888Z,94640.00
2023-04-02T06:43:01.895Z,94640.00
2023-04-02T06:44:01.957Z,94640.00
2023-04-02T06:45:02.042Z,94640.00
2023-04-02T06:46:02.112Z,94642.00
2023-04-02T06:47:02.139Z,94642.00
2023-04-02T06:48:02.268Z,94642.00
2023-04-02T06:49:02.273Z,94648.00
2023-04-02T06:50:02.352Z,94644.00
2023-04-02T06:51:02.423Z,94650.00
2023-04-02T06:52:02.522Z,94650.00
2023-04-02T06:53:02.563Z,94652.00
2023-04-02T06:54:02.627Z,94654.00
2023-04-02T06:55:02.752Z,94654.00
2023-04-02T06:56:02.777Z,94654.00
2023-04-02T06:57:02.899Z,94652.00
2023-04-02T06:58:02.916Z,94654.00
2023-04-02T06:59:02.981Z,94656.00
2023-04-02T07:00:03.072Z,94654.00
2023-04-02T07:01:03.141Z,94656.00
2023-04-02T07:02:03.191Z,94654.00
2023-04-02T07:03:03.335Z,94654.00
2023-04-02T07:04:03.353Z,94652.00
2023-04-02T07:05:03.455Z,94652.00
2023-04-02T07:06:03.504Z,94654.00
2023-04-02T07:07:03.537Z,94652.00
2023-04-02T07:08:03.619Z,94652.00
2023-04-02T07:09:03.656Z,94652.00
2023-04-02T07:10:03.714Z,94650.00
2023-04-02T07:11:03.764Z,94652.00
2023-04-02T07:12:03.837Z,94654.00
2023-04-02T07:13:03.887Z,94654.00
2023-04-02T07:14:03.961Z,94656.00
2023-04-02T07:15:04.018Z,94656.00
2023-04-02T07:16:04.149Z,94658.00
2023-04-02T07:17:04.137Z,94654.00
2023-04-02T07:18:04.276Z,94658.00
2023-04-02T07:19:04.281Z,94660.00
2023-04-02T07:20:04.328Z,94658.00
2023-04-02T07:21:04.388Z,94658.00
2023-04-02T07:22:04.463Z,94660.00
2023-04-02T07:23:04.520Z,94660.00
2023-04-02T07:24:04.598Z,94662.00
2023-04-02T07:25:04.635Z,94658.00
2023-04-02T07:26:04.698Z,94658.00
2023-04-02T07:27:04.729Z,94658.00
2023-04-02T07:28:04.785Z,94654.00
2023-04-02T07:29:04.812Z,94656.00
2023-04-02T07:30:04.829Z,94658.00
2023-04-02T07:31:04.892Z,94656.00
2023-04-02T07:32:04.891Z,94656.00
2023-04-02T07:33:04.991Z,94658.00
2023-04-02T07:34:04.964Z,94656.00
2023-04-02T07:35:05.076Z,94658.00
2023-04-02T07:36:05.025Z,94660.00
2023-04-02T07:37:05.052Z,94660.00
2023-04-02T07:38:05.085Z,94660.00
2023-04-02T07:39:05.087Z,94662.00
2023-04-02T07:40:05.146Z,94664.00
2023-04-02T07:41:05.125Z,94666.00
2023-04-02T07:42:05.148Z,94668.00
2023-04-02T07:43:05.173Z,94666.00
2023-04-02T07:44:05.200Z,94668.00
2023-04-02T07:45:06.124Z,94668.00
2023-04-02T07:46:05.250Z,94670.00
2023-04-02T07:47:05.343Z,94670.00
2023-04-02T07:48:05.321Z,94670.00
2023-04-02T07:49:05.328Z,94672.00
2023-04-02T07:50:05.343Z,94672.00
2023-04-02T07:51:05.367Z,94678.00
2023-04-02T07:52:05.395Z,94678.00
2023-04-02T07:53:05.399Z,94678.00
2023-04-02T07:54:05.418Z,94679.00
2023-04-02T07:55:05.420Z,94679.00
2023-04-02T07:56:05.456Z,94678.00
2023-04-02T07:57:05.548Z,94676.00
2023-04-02T07:58:05.470Z,94678.00
2023-04-02T07:59:05.470Z,94679.00
2023-04-02T08:00:05.469Z,94679.00
2023-04-02T08:01:05.483Z,94678.00
2023-04-02T08:02:05.523Z,94679.00
2023-04-02T08:03:05.554Z,94681.00
2023-04-02T08:04:05.490Z,94681.00
2023-04-02T08:05:05.484Z,94681.00
2023-04-02T08:06:05.487Z,94679.00
2023-04-02T08:07:05.505Z,94679.00
2023-04-02T08:08:05.492Z,94679.00
2023-04-02T08:09:05.502Z,94679.00
2023-04-02T08:10:05.498Z,94678.00
2023-04-02T08:11:05.508Z,94678.00
2023-04-02T08:12:05.533Z,94678.00
2023-04-02T08:13:05.522Z,94681.00
2023-04-02T08:14:05.548Z,94679.00
2023-04-02T08:15:05.575Z,94681.00
2023-04-02T08:16:05.618Z,94683.00
2023-04-02T08:17:05.685Z,94681.00
2023-04-02T08:18:05.766Z,94681.00
2023-04-02T08:19:05.793Z,94685.00
2023-04-02T08:20:05.850Z,94683.00
2023-04-02T08:21:05.891Z,94683.00
2023-04-02T08:22:05.930Z,94681.00
2023-04-02T08:23:05.970Z,94679.00
2023-04-02T08:24:05.999Z,94681.00
2023-04-02T08:25:06.043Z,94683.00
2023-04-02T08:26:06.126Z,94679.00
2023-04-02T08:27:06.117Z,94681.00
2023-04-02T08:28:06.192Z,94683.00
2023-04-02T08:29:06.192Z,94681.00
2023-04-02T08:30:06.259Z,94679.00
2023-04-02T08:31:06.322Z,94681.00
2023-04-02T08:32:06.284Z,94683.00
2023-04-02T08:33:06.411Z,94681.00
2023-04-02T08:34:06.349Z,94681.00
2023-04-02T08:35:06.367Z,94679.00
2023-04-02T08:36:06.409Z,94681.00
2023-04-02T08:37:06.428Z,94681.00
2023-04-02T08:38:06.450Z,94681.00
2023-04-02T08:39:06.476Z,94683.00
2023-04-02T08:40:06.530Z,94683.00
2023-04-02T08:41:06.537Z,94685.00
2023-04-02T08:42:06.566Z,94683.00
2023-04-02T08:43:06.600Z,94683.00
2023-04-02T08:44:06.647Z,94683.00
2023-04-02T08:45:23.070Z,94683.00
2023-04-02T08:46:06.716Z,94683.00
2023-04-02T08:47:06.639Z,94681.00
2023-04-02T08:48:06.678Z,94685.00
2023-04-02T08:49:06.594Z,94687.00
2023-04-02T08:50:06.591Z,94687.00
2023-04-02T08:51:06.586Z,94687.00
2023-04-02T08:52:06.549Z,94683.00
2023-04-02T08:53:06.542Z,94687.00
2023-04-02T08:54:07.049Z,94681.00
2023-04-02T08:55:06.534Z,94683.00
2023-04-02T08:56:06.505Z,94681.00
2023-04-02T08:57:06.514Z,94683.00
2023-04-02T08:58:06.472Z,94683.00
2023-04-02T08:59:06.451Z,94681.00
2023-04-02T09:00:06.468Z,94681.00
2023-04-02T09:01:06.434Z,94685.00
2023-04-02T09:02:06.416Z,94685.00
2023-04-02T09:03:06.443Z,94683.00
2023-04-02T09:04:06.418Z,94683.00
2023-04-02T09:05:06.577Z,94683.00
2023-04-02T09:06:06.396Z,94683.00
2023-04-02T09:07:06.361Z,94681.00
2023-04-02T09:08:06.324Z,94683.00
2023-04-02T09:09:06.411Z,94681.00
2023-04-02T09:10:06.321Z,94685.00
2023-04-02T09:11:06.303Z,94685.00
2023-04-02T09:12:06.273Z,94685.00
2023-04-02T09:13:06.276Z,94687.00
2023-04-02T09:14:06.236Z,94687.00
2023-04-02T09:15:06.221Z,94691.00
2023-04-02T09:16:06.280Z,94689.00
2023-04-02T09:17:06.178Z,94689.00
2023-04-02T09:18:06.175Z,94689.00
2023-04-02T09:19:06.150Z,94689.00
2023-04-02T09:20:06.134Z,94689.00
2023-04-02T09:21:06.110Z,94691.00
2023-04-02T09:22:06.094Z,94691.00
2023-04-02T09:23:06.074Z,94691.00
2023-04-02T09:24:06.060Z,94689.00
2023-04-02T09:25:06.052Z,94687.00
2023-04-02T09:26:06.066Z,94691.00
2023-04-02T09:27:06.066Z,94689.00
2023-04-02T09:28:06.075Z,94693.00
2023-04-02T09:29:06.086Z,94691.00
2023-04-02T09:30:06.092Z,94691.00
2023-04-02T09:31:07.190Z,94689.00
2023-04-02T09:32:06.120Z,94689.00
2023-04-02T09:33:06.105Z,94689.00
2023-04-02T09:34:06.087Z,94689.00
2023-04-02T09:35:12.279Z,94689.00
2023-04-02T09:36:06.097Z,94689.00
2023-04-02T09:37:06.051Z,94687.00
2023-04-02T09:38:06.038Z,94691.00
2023-04-02T09:39:06.021Z,94687.00
2023-04-02T09:40:06.008Z,94689.00
2023-04-02T09:41:05.997Z,94691.00
2023-04-02T09:42:06.125Z,94691.00
2023-04-02T09:43:05.950Z,94691.00
2023-04-02T09:44:05.928Z,94691.00
2023-04-02T09:45:05.906Z,94693.00
2023-04-02T09:46:05.884Z,94693.00
2023-04-02T09:47:05.947Z,94695.00
2023-04-02T09:48:05.917Z,94695.00
2023-04-02T09:49:05.825Z,94693.00
2023-04-02T09:50:05.796Z,94693.00
2023-04-02T09:51:05.778Z,94693.00
2023-04-02T09:52:05.756Z,94691.00
2023-04-02T09:53:05.728Z,94693.00
2023-04-02T09:54:05.712Z,94697.00
2023-04-02T09:55:05.681Z,94695.00
2023-04-02T09:56:05.649Z,94693.00
2023-04-02T09:57:05.655Z,94695.00
2023-04-02T09:58:05.604Z,94695.00
2023-04-02T09:59:05.588Z,94695.00
2023-04-02T10:00:05.551Z,94693.00
2023-04-02T10:01:05.594Z,94695.00
2023-04-02T10:02:05.514Z,94693.00
2023-04-02T10:03:05.539Z,94693.00
2023-04-02T10:04:05.531Z,94695.00
2023-04-02T10:05:05.436Z,94693.00
2023-04-02T10:06:05.399Z,94697.00
2023-04-02T10:07:05.381Z,94697.00
2023-04-02T10:08:05.360Z,94701.00
2023-04-02T10:09:05.313Z,94701.00
2023-04-02T10:10:05.293Z,94701.00
2023-04-02T10:11:05.267Z,94699.00
2023-04-02T10:12:05.235Z,94701.00
2023-04-02T10:13:05.215Z,94701.00
2023-04-02T10:14:05.194Z,94703.00
2023-04-02T10:15:05.160Z,94701.00
2023-04-02T10:16:05.275Z,94699.00
2023-04-02T10:17:05.153Z,94697.00
2023-04-02T10:18:05.198Z,94699.00
2023-04-02T10:19:05.057Z,94701.00
2023-04-02T10:20:05.079Z,94699.00
2023-04-02T10:21:05.017Z,94695.00
2023-04-02T10:22:04.977Z,94697.00
2023-04-02T10:23:06.360Z,94699.00
2023-04-02T10:24:05.041Z,94697.00
2023-04-02T10:25:05.083Z,94693.00
2023-04-02T10:26:05.108Z,94695.00
2023-04-02T10:27:05.129Z,94693.00
2023-04-02T10:28:05.139Z,94697.00
2023-04-02T10:29:06.842Z,94701.00
2023-04-02T10:30:05.117Z,94699.00
2023-04-02T10:31:06.086Z,94697.00
2023-04-02T10:32:05.060Z,94697.00
2023-04-02T10:33:05.059Z,94699.00
2023-04-02T10:34:05.027Z,94703.00
2023-04-02T10:35:05.007Z,94705.00
2023-04-02T10:36:05.041Z,94709.00
2023-04-02T10:37:04.961Z,94711.00
2023-04-02T10:38:04.958Z,94709.00
2023-04-02T10:39:04.941Z,94711.00
2023-04-02T10:40:04.911Z,94709.00
2023-04-02T10:41:04.894Z,94711.00
2023-04-02T10:42:04.881Z,94711.00
2023-04-02T10:43:04.902Z,94711.00
2023-04-02T10:44:16.684Z,94709.00
2023-04-02T10:45:04.918Z,94709.00
2023-04-02T10:46:04.961Z,94713.00
2023-04-02T10:47:04.873Z,94711.00
2023-04-02T10:48:04.865Z,94713.00
2023-04-02T10:49:04.924Z,94713.00
2023-04-02T10:50:04.803Z,94715.00
2023-04-02T10:51:04.778Z,94717.00
2023-04-02T10:52:04.775Z,94717.00
2023-04-02T10:53:04.751Z,94713.00
2023-04-02T10:54:04.715Z,94717.00
2023-04-02T10:55:04.701Z,94717.00
2023-04-02T10:56:04.685Z,94719.00
2023-04-02T10:57:04.687Z,94721.00
2023-04-02T10:58:04.664Z,94721.00
2023-04-02T10:59:04.627Z,94721.00
2023-04-02T11:00:04.608Z,94721.00
2023-04-02T11:01:04.593Z,94723.00
2023-04-02T11:02:04.569Z,94723.00
2023-04-02T11:03:04.669Z,94723.00
2023-04-02T11:04:04.848Z,94726.00
2023-04-02T11:05:04.514Z,94730.00
2023-04-02T11:06:04.492Z,94726.00
2023-04-02T11:07:14.065Z,94728.00
2023-04-02T11:08:04.475Z,94730.00
2023-04-02T11:09:04.422Z,94730.00
2023-04-02T11:10:04.398Z,94730.00
2023-04-02T11:11:04.798Z,94728.00
2023-04-02T11:12:04.327Z,94732.00
2023-04-02T11:13:04.305Z,94732.00
2023-04-02T11:14:04.276Z,94730.00
2023-04-02T11:15:04.253Z,94730.00
2023-04-02T11:16:04.240Z,94728.00
2023-04-02T11:17:04.197Z,94730.00
2023-04-02T11:18:04.190Z,94728.00
2023-04-02T11:19:04.140Z,94732.00
2023-04-02T11:20:04.118Z,94730.00
2023-04-02T11:21:04.076Z,94730.00
2023-04-02T11:22:06.479Z,94732.00
2023-04-02T11:23:04.022Z,94730.00
2023-04-02T11:24:04.017Z,94734.00
2023-04-02T11:25:03.955Z,94738.00
2023-04-02T11:26:03.927Z,94734.00
2023-04-02T11:27:03.916Z,94738.00
2023-04-02T11:28:03.865Z,94740.00
2023-04-02T11:29:03.833Z,94740.00
2023-04-02T11:30:03.929Z,94740.00
2023-04-02T11:31:03.812Z,94744.00
2023-04-02T11:32:04.193Z,94744.00
2023-04-02T11:33:03.756Z,94746.00
2023-04-02T11:34:03.697Z,94748.00
2023-04-02T11:35:07.447Z,94750.00
2023-04-02T11:36:03.674Z,94752.00
2023-04-02T11:37:03.593Z,94754.00
2023-04-02T11:38:03.571Z,94758.00
2023-04-02T11:39:11.019Z,94756.00
2023-04-02T11:40:03.534Z,94758.00
2023-04-02T11:41:03.480Z,94756.00
2023-04-02T11:42:03.459Z,94756.00
2023-04-02T11:43:03.424Z,94760.00
2023-04-02T11:44:03.410Z,94760.00
2023-04-02T11:45:03.389Z,94760.00